createdAt,value
2023-03-22T00:01:24.183Z,12.48
2023-03-22T00:04:09.853Z,12.95
2023-03-22T00:06:55.496Z,12.73
2023-03-22T00:09:41.223Z,14.18
2023-03-22T00:12:27.083Z,16.05
2023-03-22T00:15:12.911Z,13.85
2023-03-22T00:17:59.108Z,14.60
2023-03-22T00:20:52.751Z,13.90
2023-03-22T00:24:15.727Z,12.43
2023-03-22T00:27:01.804Z,13.20
2023-03-22T00:29:47.328Z,12.45
2023-03-22T00:32:38.701Z,12.38
2023-03-22T00:35:24.559Z,12.40
2023-03-22T00:38:14.279Z,11.70
2023-03-22T00:41:23.206Z,11.63
2023-03-22T00:44:08.980Z,11.23
2023-03-22T00:46:54.680Z,12.07
2023-03-22T00:49:40.463Z,11.57
2023-03-22T00:52:26.616Z,10.55
2023-03-22T00:55:12.575Z,11.10
2023-03-22T00:57:58.432Z,11.25
2023-03-22T01:00:45.221Z,11.20
2023-03-22T01:03:31.238Z,11.32
2023-03-22T01:06:17.335Z,10.48
2023-03-22T01:09:05.082Z,10.88
2023-03-22T01:11:50.828Z,10.15
2023-03-22T01:14:36.784Z,13.05
2023-03-22T01:17:22.909Z,10.77
2023-03-22T01:20:09.719Z,10.55
2023-03-22T01:22:55.776Z,11.05
2023-03-22T01:25:41.726Z,10.52
2023-03-22T01:28:28.440Z,10.85
2023-03-22T01:31:14.054Z,10.35
2023-03-22T01:33:59.877Z,11.32
2023-03-22T01:36:46.643Z,11.38
2023-03-22T01:39:32.976Z,11.35
2023-03-22T01:42:24.022Z,10.75
2023-03-22T01:45:15.522Z,11.20
2023-03-22T01:48:22.227Z,10.88
2023-03-22T01:51:13.249Z,9.45
2023-03-22T01:54:47.348Z,10.02
2023-03-22T01:57:45.045Z,11.20
2023-03-22T02:00:37.251Z,11.10
2023-03-22T02:04:07.260Z,9.73
2023-03-22T02:06:54.358Z,9.90
2023-03-22T02:09:43.943Z,10.95
2023-03-22T02:12:36.571Z,10.05
2023-03-22T02:15:47.052Z,10.57
2023-03-22T02:19:42.335Z,9.02
2023-03-22T02:22:58.153Z,10.05
2023-03-22T02:26:02.576Z,10.55
2023-03-22T02:29:26.431Z,10.18
2023-03-22T02:32:39.073Z,11.32
2023-03-22T02:35:31.440Z,9.10
2023-03-22T02:38:20.315Z,10.38
2023-03-22T02:41:11.618Z,9.07
2023-03-22T02:44:13.373Z,10.63
2023-03-22T02:47:03.531Z,9.70
2023-03-22T02:50:08.712Z,9.52
2023-03-22T02:53:10.114Z,9.10
2023-03-22T02:56:01.405Z,10.38
2023-03-22T02:58:53.403Z,9.43
2023-03-22T03:01:51.434Z,9.77
2023-03-22T03:04:42.273Z,9.63
2023-03-22T03:07:29.131Z,10.70
2023-03-22T03:10:16.584Z,10.15
2023-03-22T03:13:02.374Z,10.02
2023-03-22T03:15:54.062Z,9.70
2023-03-22T03:18:49.629Z,9.88
2023-03-22T03:21:46.507Z,9.70
2023-03-22T03:24:40.496Z,9.13
2023-03-22T03:27:36.821Z,9.32
2023-03-22T03:30:30.945Z,9.38
2023-03-22T03:36:06.900Z,8.55
2023-03-22T03:38:54.924Z,8.80
2023-03-22T03:41:46.921Z,8.40
2023-03-22T03:44:36.093Z,7.70
2023-03-22T03:47:24.578Z,7.63
2023-03-22T03:50:11.897Z,7.88
2023-03-22T03:52:57.669Z,7.35
2023-03-22T03:55:43.800Z,8.10
2023-03-22T03:58:33.187Z,7.50
2023-03-22T04:01:20.793Z,8.10
2023-03-22T04:04:27.762Z,8.23
2023-03-22T04:07:23.220Z,7.78
2023-03-22T04:10:09.044Z,8.43
2023-03-22T04:12:54.974Z,7.90
2023-03-22T04:15:41.118Z,7.80
2023-03-22T04:18:32.155Z,7.95
2023-03-22T04:21:21.874Z,8.05
2023-03-22T04:24:16.158Z,8.15
2023-03-22T04:27:05.026Z,8.00
2023-03-22T04:29:58.129Z,8.05
2023-03-22T04:33:07.276Z,7.70
2023-03-22T04:36:24.889Z,7.93
2023-03-22T04:39:42.668Z,7.97
2023-03-22T04:42:57.565Z,8.23
2023-03-22T04:46:10.143Z,7.82
2023-03-22T04:49:03.481Z,7.90
2023-03-22T04:51:54.617Z,8.60
2023-03-22T04:54:53.632Z,8.98
2023-03-22T04:57:39.400Z,7.55
2023-03-22T05:00:25.601Z,8.48
2023-03-22T05:03:13.411Z,7.90
2023-03-22T05:06:04.907Z,8.68
2023-03-22T05:09:01.073Z,7.15
2023-03-22T05:11:47.568Z,7.88
2023-03-22T05:14:42.797Z,7.85
2023-03-22T05:17:31.056Z,9.90
2023-03-22T05:20:18.961Z,7.10
2023-03-22T05:23:11.041Z,8.05
2023-03-22T05:25:58.618Z,7.63
2023-03-22T05:28:46.597Z,8.00
2023-03-22T05:31:40.410Z,7.63
2023-03-22T05:34:35.580Z,6.57
2023-03-22T05:37:31.070Z,6.35
2023-03-22T05:40:18.149Z,7.00
2023-03-22T05:43:05.331Z,7.20
2023-03-22T05:45:51.899Z,7.82
2023-03-22T05:49:06.824Z,6.53
2023-03-22T05:51:53.122Z,6.35
2023-03-22T05:54:42.075Z,6.43
2023-03-22T05:57:30.211Z,6.05
2023-03-22T06:00:18.253Z,6.45
2023-03-22T06:03:24.518Z,6.32
2023-03-22T06:06:18.688Z,6.78
2023-03-22T06:09:17.675Z,5.85
2023-03-22T06:12:08.034Z,6.18
2023-03-22T06:14:54.339Z,6.13
2023-03-22T06:18:04.978Z,6.10
2023-03-22T06:20:55.473Z,5.28
2023-03-22T06:23:44.093Z,6.28
2023-03-22T06:26:36.283Z,5.88
2023-03-22T06:29:22.387Z,5.78
2023-03-22T06:32:10.787Z,6.28
2023-03-22T06:34:56.728Z,5.78
2023-03-22T06:37:43.440Z,6.20
2023-03-22T06:40:29.222Z,5.78
2023-03-22T06:43:16.058Z,5.68
2023-03-22T06:46:05.566Z,5.20
2023-03-22T06:48:57.937Z,10.00
2023-03-22T06:51:44.130Z,5.28
2023-03-22T06:54:29.790Z,4.22
2023-03-22T06:57:15.875Z,4.82
2023-03-22T07:00:01.629Z,4.88
2023-03-22T07:02:47.206Z,5.00
2023-03-22T07:05:44.993Z,4.55
2023-03-22T07:08:32.082Z,4.68
2023-03-22T07:11:17.851Z,4.50
2023-03-22T07:14:08.746Z,4.25
2023-03-22T07:17:15.117Z,5.22
2023-03-22T07:20:01.863Z,4.07
2023-03-22T07:22:51.649Z,4.70
2023-03-22T07:25:39.968Z,4.40
2023-03-22T07:28:44.581Z,4.40
2023-03-22T07:31:35.748Z,4.28
2023-03-22T07:34:24.374Z,4.60
2023-03-22T07:37:30.938Z,4.05
2023-03-22T07:40:17.225Z,3.85
2023-03-22T07:43:03.428Z,3.45
2023-03-22T07:46:07.040Z,3.40
2023-03-22T07:49:15.968Z,5.15
2023-03-22T07:52:08.939Z,16.58
2023-03-22T07:54:54.877Z,6.07
2023-03-22T07:57:40.990Z,4.30
2023-03-22T08:00:27.333Z,4.28
2023-03-22T08:03:36.602Z,3.40
2023-03-22T08:06:42.799Z,3.60
2023-03-22T08:09:30.213Z,3.95
2023-03-22T08:12:16.199Z,5.60
2023-03-22T08:15:04.400Z,21.45
2023-03-22T08:17:52.582Z,3.70
2023-03-22T08:20:56.422Z,19.75
2023-03-22T08:23:43.933Z,4.07
2023-03-22T08:26:54.114Z,5.20
2023-03-22T08:29:49.031Z,4.60
2023-03-22T08:32:35.753Z,3.25
2023-03-22T08:35:21.889Z,2.78
2023-03-22T08:38:09.702Z,3.60
2023-03-22T08:41:03.681Z,3.25
2023-03-22T08:43:49.642Z,3.13
2023-03-22T08:46:35.909Z,3.67
2023-03-22T08:49:22.389Z,3.92
2023-03-22T08:55:22.246Z,3.20
2023-03-22T08:58:26.465Z,3.70
2023-03-22T09:01:34.436Z,2.85
2023-03-22T09:04:22.370Z,2.65
2023-03-22T09:07:08.171Z,4.18
2023-03-22T09:09:54.839Z,2.20
2023-03-22T09:12:41.550Z,2.40
2023-03-22T09:15:27.431Z,4.40
2023-03-22T09:18:31.105Z,2.17
2023-03-22T09:21:22.064Z,2.97
2023-03-22T09:24:27.906Z,2.55
2023-03-22T09:27:17.108Z,2.65
2023-03-22T09:30:03.092Z,4.30
2023-03-22T09:32:49.322Z,4.80
2023-03-22T09:35:36.401Z,9.90
2023-03-22T09:38:27.565Z,2.35
2023-03-22T09:41:25.109Z,2.13
2023-03-22T09:44:22.350Z,2.40
2023-03-22T09:47:18.049Z,1.70
2023-03-22T09:50:16.491Z,1.98
2023-03-22T09:53:02.136Z,1.85
2023-03-22T09:56:07.710Z,2.10
2023-03-22T09:58:59.514Z,1.80
2023-03-22T10:01:51.261Z,2.20
2023-03-22T10:05:13.211Z,1.60
2023-03-22T10:08:07.722Z,1.60
2023-03-22T10:10:54.972Z,2.00
2023-03-22T10:13:47.554Z,1.90
2023-03-22T10:16:35.011Z,1.70
2023-03-22T10:19:25.720Z,1.63
2023-03-22T10:22:15.702Z,1.55
2023-03-22T10:25:02.378Z,1.25
2023-03-22T10:27:49.938Z,2.03
2023-03-22T10:30:38.463Z,1.75
2023-03-22T10:33:27.778Z,2.78
2023-03-22T10:36:13.959Z,1.80
2023-03-22T10:39:21.948Z,2.03
2023-03-22T10:42:14.576Z,2.72
2023-03-22T10:45:13.690Z,2.00
2023-03-22T10:48:04.167Z,3.13
2023-03-22T10:50:50.334Z,2.38
2023-03-22T10:53:39.889Z,1.80
2023-03-22T10:56:25.812Z,3.42
2023-03-22T10:59:47.693Z,3.47
2023-03-22T11:02:33.480Z,3.20
2023-03-22T11:05:23.081Z,3.25
2023-03-22T11:08:14.513Z,3.13
2023-03-22T11:11:00.443Z,3.40
2023-03-22T11:13:54.906Z,2.90
2023-03-22T11:17:01.897Z,2.60
2023-03-22T11:19:56.582Z,1.80
2023-03-22T11:22:48.156Z,3.00
2023-03-22T11:25:38.573Z,2.83
2023-03-22T11:28:28.980Z,2.13
2023-03-22T11:31:16.705Z,1.75
2023-03-22T11:34:02.645Z,1.67
2023-03-22T11:36:54.772Z,2.75
2023-03-22T11:39:46.537Z,1.83
2023-03-22T11:42:34.473Z,2.65
2023-03-22T11:45:37.338Z,2.15
2023-03-22T11:48:25.722Z,1.50
2023-03-22T11:51:20.138Z,1.10
2023-03-22T11:54:05.968Z,1.90
2023-03-22T11:56:52.357Z,1.73
2023-03-22T11:59:40.690Z,1.92
2023-03-22T12:02:41.839Z,1.67
2023-03-22T12:05:32.904Z,2.75
2023-03-22T12:08:27.083Z,1.80
2023-03-22T12:11:27.573Z,2.42
2023-03-22T12:14:35.111Z,2.42
2023-03-22T12:17:25.971Z,2.53
2023-03-22T12:20:40.133Z,2.28
2023-03-22T12:26:18.684Z,1.42
2023-03-22T12:29:08.232Z,1.40
2023-03-22T12:32:03.506Z,1.48
2023-03-22T12:34:52.613Z,1.73
2023-03-22T12:37:42.851Z,1.33
2023-03-22T12:40:32.664Z,1.75
2023-03-22T12:43:33.744Z,1.73
2023-03-22T12:46:28.590Z,2.13
2023-03-22T12:49:26.448Z,1.35
2023-03-22T12:52:22.634Z,1.80
2023-03-22T12:55:10.762Z,1.58
2023-03-22T12:57:58.333Z,1.40
2023-03-22T13:01:01.279Z,1.80
2023-03-22T13:03:53.577Z,1.60
2023-03-22T13:06:44.690Z,2.25
2023-03-22T13:09:48.155Z,2.58
2023-03-22T13:12:34.813Z,5.18
2023-03-22T13:15:41.949Z,4.60
2023-03-22T13:18:36.521Z,3.75
2023-03-22T13:24:10.130Z,6.65
2023-03-22T13:26:59.302Z,2.47
2023-03-22T13:29:49.937Z,3.78
2023-03-22T13:32:37.729Z,3.55
2023-03-22T13:35:29.042Z,3.72
2023-03-22T13:38:22.435Z,1.77
2023-03-22T13:41:14.121Z,2.88
2023-03-22T13:44:02.373Z,2.30
2023-03-22T13:46:52.399Z,1.90
2023-03-22T13:49:48.716Z,2.15
2023-03-22T13:52:38.243Z,1.80
2023-03-22T13:55:54.443Z,2.05
2023-03-22T13:58:41.322Z,1.80
2023-03-22T14:01:35.304Z,1.48
2023-03-22T14:07:25.940Z,1.70
2023-03-22T14:10:26.636Z,1.80
2023-03-22T14:13:17.884Z,1.40
2023-03-22T14:16:15.657Z,1.27
2023-03-22T14:19:03.700Z,2.67
